Time;durP1;ratioP1;P1;durP2;ratioP2;P2;SDS_P1;SDS_P2;PMS_P1;PMS_P2;Temp;Humidity;BMP_temperature;BMP_pressure;BME280_temperature;BME280_humidity;BME280_pressure;Samples;Min_cycle;Max_cycle;Signal;HPM_P1;HPM_P2
2023/06/08 00:00:24;;;;;;;;;;;;;;;23.36;100.00;97799.34;5046304;28;19926;-69
2023/06/08 00:02:50;;;;;;;;;;;;;;;23.34;100.00;97796.16;5046466;28;19925;-70
2023/06/08 00:05:17;;;;;;;;;;;;;;;23.27;100.00;97793.28;5046604;28;19932;-69
2023/06/08 00:07:44;;;;;;;;;;;;;;;23.26;100.00;97788.94;5044221;28;19987;-69
2023/06/08 00:10:10;;;;;;;;;;;;;;;23.34;100.00;97793.44;5044450;28;19936;-69
2023/06/08 00:12:37;;;;;;;;;;;;;;;22.82;100.00;97796.28;5047428;28;19932;-69
2023/06/08 00:15:06;;;;;;;;;;;;;;;22.63;100.00;97794.13;5046579;28;20004;-69
2023/06/08 00:17:32;;;;;;;;;;;;;;;22.89;100.00;97785.59;5042860;28;19925;-69
2023/06/08 00:19:59;;;;;;;;;;;;;;;23.39;100.00;97787.75;5047058;28;19925;-69
2023/06/08 00:22:26;;;;;;;;;;;;;;;23.65;100.00;97786.13;5046384;28;19933;-71
2023/06/08 00:24:53;;;;;;;;;;;;;;;23.88;97.98;97782.81;5048077;28;19921;-71
2023/06/08 00:27:19;;;;;;;;;;;;;;;24.03;96.73;97785.53;5045379;28;19936;-69
2023/06/08 00:29:45;;;;;;;;;;;;;;;24.08;96.02;97789.91;5043941;28;19933;-69
2023/06/08 00:32:13;;;;;;;;;;;;;;;24.18;94.94;97782.00;5044560;28;19925;-69
2023/06/08 00:34:39;;;;;;;;;;;;;;;24.01;96.10;97790.56;5047406;28;19932;-69
2023/06/08 00:37:06;;;;;;;;;;;;;;;23.97;96.47;97786.16;5046317;28;19925;-69
2023/06/08 00:39:32;;;;;;;;;;;;;;;24.03;96.00;97780.06;5044193;28;20382;-69
2023/06/08 00:41:58;;;;;;;;;;;;;;;24.14;95.55;97783.06;5043934;28;19926;-69
2023/06/08 00:44:25;;;;;;;;;;;;;;;24.21;94.74;97780.50;5045851;28;19925;-69
2023/06/08 00:46:52;;;;;;;;;;;;;;;24.23;94.46;97778.22;5047244;28;19952;-69
2023/06/08 00:49:20;;;;;;;;;;;;;;;24.24;94.11;97776.28;5045719;28;19920;-69
2023/06/08 00:51:47;;;;;;;;;;;;;;;24.26;93.88;97771.28;5047785;28;19926;-69
2023/06/08 00:54:14;;;;;;;;;;;;;;;24.21;94.14;97775.03;5044319;28;19926;-69
2023/06/08 00:56:41;;;;;;;;;;;;;;;24.25;93.91;97775.94;5047125;28;19925;-69
2023/06/08 00:59:09;;;;;;;;;;;;;;;24.21;93.87;97772.31;5046735;28;19928;-69
2023/06/08 01:01:38;;;;;;;;;;;;;;;24.25;93.59;97775.94;5043435;28;20335;-69
2023/06/08 01:04:06;;;;;;;;;;;;;;;24.20;93.79;97773.50;5043344;28;19925;-69
2023/06/08 01:06:36;;;;;;;;;;;;;;;24.21;94.15;97764.13;5046532;28;19925;-69
2023/06/08 01:09:14;;;;;;;;;;;;;;;24.19;93.97;97763.72;5046558;28;19924;-69
2023/06/08 01:11:46;;;;;;;;;;;;;;;24.17;93.99;97777.69;5035091;28;19925;-69
2023/06/08 01:14:18;;;;;;;;;;;;;;;24.14;94.15;97770.22;5034763;28;20047;-69
2023/06/08 01:16:49;;;;;;;;;;;;;;;24.11;94.48;97768.19;5034703;28;19925;-69
2023/06/08 01:19:17;;;;;;;;;;;;;;;24.09;94.61;97770.47;5041405;28;20235;-69
2023/06/08 01:21:59;;;;;;;;;;;;;;;24.11;94.34;97770.13;5047295;28;19929;-69
2023/06/08 01:24:30;;;;;;;;;;;;;;;24.09;94.41;97772.41;5045031;28;19956;-69
2023/06/08 01:26:57;;;;;;;;;;;;;;;24.03;94.77;97769.16;5046337;28;19921;-69
2023/06/08 01:29:25;;;;;;;;;;;;;;;24.04;94.46;97762.56;5044187;28;19925;-69
2023/06/08 01:31:51;;;;;;;;;;;;;;;24.06;94.80;97763.00;5042854;28;19926;-69
2023/06/08 01:34:18;;;;;;;;;;;;;;;23.99;94.95;97759.28;5043741;28;19928;-69
2023/06/08 01:36:48;;;;;;;;;;;;;;;24.01;95.14;97759.75;5045299;28;19929;-69
2023/06/08 01:39:22;;;;;;;;;;;;;;;23.98;95.20;97749.53;5045689;28;20230;-69
2023/06/08 01:41:53;;;;;;;;;;;;;;;23.99;95.04;97757.34;5042761;28;19940;-69
2023/06/08 01:44:21;;;;;;;;;;;;;;;23.97;95.04;97756.13;5044213;28;19925;-69
2023/06/08 01:46:53;;;;;;;;;;;;;;;24.01;95.06;97748.84;5045865;28;19935;-69
2023/06/08 01:49:20;;;;;;;;;;;;;;;23.93;95.37;97752.53;5044172;28;19936;-69
2023/06/08 01:51:46;;;;;;;;;;;;;;;23.83;96.13;97755.81;5046595;28;19925;-69
2023/06/08 01:54:13;;;;;;;;;;;;;;;23.69;96.97;97747.25;5042792;28;19929;-69
2023/06/08 01:56:39;;;;;;;;;;;;;;;23.77;96.37;97757.22;5045950;28;19925;-69
2023/06/08 01:59:07;;;;;;;;;;;;;;;23.49;97.95;97758.06;5044397;28;19925;-69
2023/06/08 02:01:34;;;;;;;;;;;;;;;23.59;97.92;97752.09;5041179;28;19932;-69
2023/06/08 02:04:00;;;;;;;;;;;;;;;23.62;97.59;97742.41;5040994;28;19925;-69
2023/06/08 02:06:26;;;;;;;;;;;;;;;23.65;97.22;97742.50;5044671;28;19984;-69
2023/06/08 02:08:53;;;;;;;;;;;;;;;23.69;96.66;97747.25;5045666;28;19929;-69
2023/06/08 02:11:19;;;;;;;;;;;;;;;23.71;96.54;97739.50;5044200;28;19925;-69
2023/06/08 02:13:46;;;;;;;;;;;;;;;23.76;96.08;97745.50;5042140;28;19925;-69
2023/06/08 02:16:13;;;;;;;;;;;;;;;23.77;96.08;97749.81;5042568;28;19930;-69
2023/06/08 02:18:41;;;;;;;;;;;;;;;23.73;96.32;97748.16;5045470;28;19933;-69
2023/06/08 02:21:07;;;;;;;;;;;;;;;23.69;96.43;97741.81;5049836;28;19925;-69
2023/06/08 02:23:34;;;;;;;;;;;;;;;23.71;96.36;97744.97;5041925;28;19926;-69
2023/06/08 02:26:00;;;;;;;;;;;;;;;23.67;96.82;97755.81;5041958;28;19944;-69
2023/06/08 02:28:27;;;;;;;;;;;;;;;23.64;97.08;97751.06;5043049;28;19932;-69
2023/06/08 02:30:53;;;;;;;;;;;;;;;23.64;97.30;97751.06;5045420;28;19925;-69
2023/06/08 02:33:21;;;;;;;;;;;;;;;23.64;96.92;97751.81;5043670;28;19932;-69
2023/06/08 02:35:48;;;;;;;;;;;;;;;23.59;97.62;97754.03;5041894;28;19925;-69
2023/06/08 02:38:14;;;;;;;;;;;;;;;23.60;97.53;97747.44;5041331;28;19925;-70
2023/06/08 02:40:41;;;;;;;;;;;;;;;23.55;97.71;97759.38;5045391;28;19936;-69
2023/06/08 02:43:08;;;;;;;;;;;;;;;23.54;97.96;97757.81;5045092;28;19925;-69
2023/06/08 02:45:34;;;;;;;;;;;;;;;23.50;97.79;97756.94;5041779;28;19949;-69
2023/06/08 02:48:01;;;;;;;;;;;;;;;23.51;97.90;97763.97;5041834;28;19937;-69
2023/06/08 02:50:28;;;;;;;;;;;;;;;23.51;97.94;97753.06;5048663;28;19929;-69
2023/06/08 02:52:55;;;;;;;;;;;;;;;23.53;97.89;97750.78;5045196;28;19925;-69
2023/06/08 02:55:22;;;;;;;;;;;;;;;23.47;97.97;97749.47;5043312;28;19929;-69
2023/06/08 02:57:50;;;;;;;;;;;;;;;23.48;98.07;97747.53;5041550;28;19929;-69
2023/06/08 03:00:17;;;;;;;;;;;;;;;23.47;98.02;97745.94;5044023;28;19926;-69
2023/06/08 03:02:43;;;;;;;;;;;;;;;23.42;98.33;97746.22;5048474;28;19948;-69
2023/06/08 03:05:10;;;;;;;;;;;;;;;23.38;98.77;97753.47;5048429;28;19925;-69
2023/06/08 03:07:40;;;;;;;;;;;;;;;23.39;98.51;97749.59;5045170;28;19933;-69
2023/06/08 03:10:07;;;;;;;;;;;;;;;23.35;98.67;97748.72;5045259;28;19971;-69
2023/06/08 03:12:33;;;;;;;;;;;;;;;23.33;99.01;97748.28;5048383;28;19940;-69
2023/06/08 03:15:00;;;;;;;;;;;;;;;23.35;99.01;97749.50;5048378;28;19972;-69
2023/06/08 03:17:27;;;;;;;;;;;;;;;23.35;99.10;97748.72;5046003;28;19925;-69
2023/06/08 03:19:53;;;;;;;;;;;;;;;23.32;99.27;97743.97;5047236;28;19929;-69
2023/06/08 03:22:20;;;;;;;;;;;;;;;23.32;99.25;97739.31;5048483;28;19926;-69
2023/06/08 03:24:49;;;;;;;;;;;;;;;23.31;99.17;97735.00;5048507;28;19929;-69
2023/06/08 03:27:15;;;;;;;;;;;;;;;23.29;99.63;97723.66;5047210;28;19948;-69
2023/06/08 03:29:42;;;;;;;;;;;;;;;23.30;99.73;97729.91;5044792;28;19928;-69
2023/06/08 03:32:09;;;;;;;;;;;;;;;23.26;99.69;97729.81;5043391;28;20004;-69
2023/06/08 03:34:37;;;;;;;;;;;;;;;23.25;100.00;97736.38;5036407;28;19925;-69
2023/06/08 03:37:03;;;;;;;;;;;;;;;23.29;100.00;97734.56;5036216;28;19930;-69
2023/06/08 03:39:30;;;;;;;;;;;;;;;23.26;99.85;97745.34;5036156;28;19930;-69
2023/06/08 03:41:57;;;;;;;;;;;;;;;23.28;99.92;97743.06;5036182;28;19956;-69
2023/06/08 03:44:24;;;;;;;;;;;;;;;23.18;100.00;97743.59;5036234;28;19929;-69
2023/06/08 03:46:50;;;;;;;;;;;;;;;23.20;100.00;97750.28;5035001;28;19925;-70
2023/06/08 03:49:17;;;;;;;;;;;;;;;23.09;100.00;97749.19;5036028;28;19933;-69
2023/06/08 03:51:43;;;;;;;;;;;;;;;23.16;100.00;97749.38;5047306;28;20123;-69
2023/06/08 03:54:09;;;;;;;;;;;;;;;23.12;100.00;97749.28;5035968;28;19925;-69
2023/06/08 03:56:36;;;;;;;;;;;;;;;23.07;100.00;97749.53;5036087;28;19925;-69
2023/06/08 03:59:04;;;;;;;;;;;;;;;23.11;100.00;97753.16;5043967;28;19933;-69
2023/06/08 04:01:31;;;;;;;;;;;;;;;23.11;100.00;97749.66;5047003;28;19925;-69
2023/06/08 04:03:57;;;;;;;;;;;;;;;23.15;100.00;97750.50;5047417;28;19925;-69
2023/06/08 04:06:31;;;;;;;;;;;;;;;23.17;100.00;97748.25;5045472;28;19929;-69
2023/06/08 04:08:57;;;;;;;;;;;;;;;23.07;100.00;97756.91;5044450;28;19926;-69
2023/06/08 04:11:23;;;;;;;;;;;;;;;23.04;100.00;97760.34;5045598;28;19929;-69
2023/06/08 04:13:50;;;;;;;;;;;;;;;23.06;100.00;97761.56;5047531;28;19926;-69
2023/06/08 04:16:17;;;;;;;;;;;;;;;23.06;100.00;97747.94;5045141;28;19929;-69
2023/06/08 04:18:44;;;;;;;;;;;;;;;23.03;100.00;97758.75;5043724;28;19929;-69
2023/06/08 04:21:10;;;;;;;;;;;;;;;22.98;100.00;97750.84;5051837;28;19925;-69
2023/06/08 04:23:37;;;;;;;;;;;;;;;22.85;100.00;97758.25;5043751;28;19925;-69
2023/06/08 04:26:03;;;;;;;;;;;;;;;22.85;100.00;97758.25;5043579;28;19925;-69
2023/06/08 04:28:30;;;;;;;;;;;;;;;22.59;100.00;97760.59;5046471;28;19940;-69
2023/06/08 04:30:59;;;;;;;;;;;;;;;22.73;100.00;97760.22;5046960;28;19933;-69
2023/06/08 04:33:28;;;;;;;;;;;;;;;22.78;100.00;97758.06;5044764;28;19948;-69
2023/06/08 04:35:54;;;;;;;;;;;;;;;22.84;100.00;97761.34;5043660;28;19925;-69
2023/06/08 04:38:21;;;;;;;;;;;;;;;22.91;100.00;97762.31;5045164;28;19933;-69
2023/06/08 04:40:48;;;;;;;;;;;;;;;22.92;100.00;97753.03;5046900;28;19929;-69
2023/06/08 04:43:15;;;;;;;;;;;;;;;22.88;100.00;97760.28;5046035;28;19929;-69
2023/06/08 04:45:43;;;;;;;;;;;;;;;22.83;100.00;97760.53;5043101;28;19936;-69
2023/06/08 04:48:10;;;;;;;;;;;;;;;22.87;100.00;97757.94;5043143;28;20211;-69
2023/06/08 04:50:45;;;;;;;;;;;;;;;22.93;100.00;97759.25;5046995;28;19940;-69
2023/06/08 04:53:11;;;;;;;;;;;;;;;22.93;100.00;97762.00;5046715;28;19925;-69
2023/06/08 04:55:38;;;;;;;;;;;;;;;22.62;100.00;97759.13;5043241;28;19929;-69
2023/06/08 04:58:04;;;;;;;;;;;;;;;22.74;100.00;97761.81;5043145;28;19936;-69
2023/06/08 05:00:30;;;;;;;;;;;;;;;22.62;100.00;97759.13;5044868;28;19933;-69
2023/06/08 05:02:57;;;;;;;;;;;;;;;22.53;100.00;97760.03;5045379;28;19925;-69
2023/06/08 05:05:23;;;;;;;;;;;;;;;22.64;100.00;97762.28;5043367;28;19921;-69
2023/06/08 05:07:51;;;;;;;;;;;;;;;22.76;100.00;97764.97;5042972;28;19929;-69
2023/06/08 05:10:17;;;;;;;;;;;;;;;22.84;100.00;97761.34;5042936;28;19925;-69
2023/06/08 05:12:44;;;;;;;;;;;;;;;22.82;100.00;97763.59;5045108;28;19932;-69
2023/06/08 05:15:10;;;;;;;;;;;;;;;22.82;100.00;97763.59;5046119;28;19936;-69
2023/06/08 05:17:37;;;;;;;;;;;;;;;22.85;100.00;97758.25;5042756;28;19925;-69
2023/06/08 05:20:03;;;;;;;;;;;;;;;22.85;100.00;97762.91;5046237;28;20382;-70
2023/06/08 05:22:30;;;;;;;;;;;;;;;22.54;100.00;97763.53;5045320;28;19936;-69
2023/06/08 05:24:57;;;;;;;;;;;;;;;22.67;100.00;97767.06;5046138;28;19936;-69
2023/06/08 05:27:24;;;;;;;;;;;;;;;22.83;100.00;97766.00;5044006;28;19925;-69
2023/06/08 05:29:50;;;;;;;;;;;;;;;23.09;100.00;97762.81;5042466;28;19960;-72
2023/06/08 05:32:16;;;;;;;;;;;;;;;23.21;100.00;97754.56;5043609;28;19925;-69
2023/06/08 05:34:43;;;;;;;;;;;;;;;23.31;100.00;97770.41;5046292;28;19921;-69
2023/06/08 05:37:09;;;;;;;;;;;;;;;23.49;100.00;97763.53;5046162;28;20425;-69
2023/06/08 05:39:35;;;;;;;;;;;;;;;23.65;100.00;97758.88;5034614;28;19940;-69
2023/06/08 05:42:03;;;;;;;;;;;;;;;23.49;100.00;97765.44;5034765;28;19926;-69
2023/06/08 05:44:30;;;;;;;;;;;;;;;23.52;100.00;97765.53;5034944;28;19929;-69
2023/06/08 05:46:56;;;;;;;;;;;;;;;23.62;100.00;97767.75;5035811;28;20056;-69
2023/06/08 05:49:23;;;;;;;;;;;;;;;23.74;100.00;97768.84;5034925;28;19921;-69
2023/06/08 05:51:49;;;;;;;;;;;;;;;23.46;100.00;97772.41;5047921;28;19926;-69
2023/06/08 05:54:16;;;;;;;;;;;;;;;23.69;100.00;97774.53;5044601;28;19925;-69
2023/06/08 05:56:42;;;;;;;;;;;;;;;23.94;100.00;97770.47;5046093;28;19925;-69
2023/06/08 05:59:10;;;;;;;;;;;;;;;23.84;100.00;97777.25;5045756;28;19925;-69
2023/06/08 06:01:36;;;;;;;;;;;;;;;24.05;100.00;97771.50;5033947;28;19926;-69
2023/06/08 06:04:03;;;;;;;;;;;;;;;24.29;99.04;97770.56;5034083;28;19926;-69
2023/06/08 06:06:32;;;;;;;;;;;;;;;24.44;100.00;97770.53;5033989;28;20574;-69
2023/06/08 06:08:58;;;;;;;;;;;;;;;24.40;98.47;97766.91;5041091;28;19922;-69
2023/06/08 06:11:25;;;;;;;;;;;;;;;24.47;99.56;97750.69;5034155;28;19926;-69
2023/06/08 06:13:52;;;;;;;;;;;;;;;24.47;98.42;97761.63;5039544;28;19933;-69
2023/06/08 06:16:19;;;;;;;;;;;;;;;24.41;98.73;97768.50;5044191;28;19921;-69
2023/06/08 06:18:46;;;;;;;;;;;;;;;24.50;97.84;97766.38;5042030;28;19925;-69
2023/06/08 06:21:13;;;;;;;;;;;;;;;24.80;96.33;97761.13;5050558;28;19925;-69
2023/06/08 06:23:39;;;;;;;;;;;;;;;24.92;95.19;97771.16;5042561;28;19926;-69
2023/06/08 06:26:06;;;;;;;;;;;;;;;24.71;95.71;97755.09;5041902;28;19929;-69
2023/06/08 06:28:32;;;;;;;;;;;;;;;24.86;95.45;97761.66;5044955;28;19925;-69
2023/06/08 06:30:59;;;;;;;;;;;;;;;24.90;94.93;97768.00;5045173;28;19925;-69
2023/06/08 06:33:26;;;;;;;;;;;;;;;25.22;93.84;97764.72;5043130;28;19936;-69
2023/06/08 06:35:53;;;;;;;;;;;;;;;25.28;93.27;97761.72;5046137;28;19926;-69
2023/06/08 06:38:20;;;;;;;;;;;;;;;25.49;92.70;97764.84;5047226;28;19936;-69
2023/06/08 06:40:47;;;;;;;;;;;;;;;25.59;91.71;97756.81;5049153;28;19929;-69
2023/06/08 06:43:13;;;;;;;;;;;;;;;25.56;90.80;97756.78;5047266;28;19984;-69
2023/06/08 06:45:40;;;;;;;;;;;;;;;25.56;90.96;97760.28;5045391;28;19926;-69
2023/06/08 06:48:06;;;;;;;;;;;;;;;25.58;90.76;97755.25;5045570;28;19933;-69
2023/06/08 06:50:34;;;;;;;;;;;;;;;25.61;89.11;97754.53;5053008;28;19925;-70
2023/06/08 06:53:00;;;;;;;;;;;;;;;25.59;89.84;97756.06;5048923;28;19948;-70
2023/06/08 06:55:26;;;;;;;;;;;;;;;25.54;89.49;97759.88;5046626;28;19936;-70
2023/06/08 06:57:53;;;;;;;;;;;;;;;25.56;88.23;97752.09;5045436;28;19933;-69
2023/06/08 07:00:22;;;;;;;;;;;;;;;25.57;90.08;97761.88;5046835;28;19925;-69
2023/06/08 07:02:48;;;;;;;;;;;;;;;25.83;88.99;97754.88;5049070;28;19933;-70
2023/06/08 07:05:14;;;;;;;;;;;;;;;25.97;88.10;97744.94;5047983;28;19952;-71
2023/06/08 07:07:42;;;;;;;;;;;;;;;26.09;87.20;97754.94;5044749;28;20340;-71
2023/06/08 07:10:09;;;;;;;;;;;;;;;26.19;85.32;97757.84;5047623;28;19921;-70
2023/06/08 07:12:36;;;;;;;;;;;;;;;26.12;82.14;97745.97;5053688;28;19929;-70
2023/06/08 07:15:02;;;;;;;;;;;;;;;25.95;85.62;97752.75;5037830;28;19926;-69
2023/06/08 07:17:28;;;;;;;;;;;;;;;25.58;80.26;97757.19;5036444;28;19932;-69
2023/06/08 07:19:55;;;;;;;;;;;;;;;25.15;83.12;97753.69;5046924;28;19933;-69
2023/06/08 07:22:21;;;;;;;;;;;;;;;25.38;87.11;97755.66;5048891;28;19941;-69
2023/06/08 07:24:49;;;;;;;;;;;;;;;25.30;81.62;97757.47;5048602;28;20008;-69
2023/06/08 07:27:15;;;;;;;;;;;;;;;25.00;87.29;97742.84;5046662;28;19929;-70
2023/06/08 07:29:41;;;;;;;;;;;;;;;25.43;85.18;97749.88;5045236;28;19925;-70
2023/06/08 07:32:08;;;;;;;;;;;;;;;25.83;84.73;97750.22;5043725;28;19936;-69
2023/06/08 07:34:35;;;;;;;;;;;;;;;26.02;81.39;97749.34;5048083;28;19925;-69
2023/06/08 07:37:01;;;;;;;;;;;;;;;25.32;80.73;97759.81;5046930;28;19925;-69
2023/06/08 07:39:28;;;;;;;;;;;;;;;24.91;86.02;97754.00;5045626;28;19922;-69
2023/06/08 07:41:55;;;;;;;;;;;;;;;25.40;86.80;97758.81;5044770;28;19925;-69
2023/06/08 07:44:22;;;;;;;;;;;;;;;25.27;85.35;97768.31;5045863;28;19937;-69
2023/06/08 07:46:48;;;;;;;;;;;;;;;24.84;85.84;97758.50;5047194;28;19925;-69
2023/06/08 07:49:14;;;;;;;;;;;;;;;25.18;88.17;97757.63;5047319;28;19936;-69
2023/06/08 07:51:41;;;;;;;;;;;;;;;25.02;87.49;97759.66;5047810;28;19960;-69
2023/06/08 07:54:07;;;;;;;;;;;;;;;25.68;84.97;97760.13;5044642;28;19933;-70
2023/06/08 07:56:34;;;;;;;;;;;;;;;25.92;81.20;97756.22;5046470;28;19925;-70
2023/06/08 07:59:01;;;;;;;;;;;;;;;25.80;81.75;97761.09;5047460;28;19936;-69
2023/06/08 08:01:28;;;;;;;;;;;;;;;25.59;82.79;97759.56;5045014;28;19925;-69
2023/06/08 08:03:54;;;;;;;;;;;;;;;25.65;80.37;97760.06;5043917;28;19933;-69
2023/06/08 08:06:20;;;;;;;;;;;;;;;25.19;80.35;97753.75;5045377;28;19925;-69
2023/06/08 08:08:47;;;;;;;;;;;;;;;25.00;81.21;97757.28;5047617;28;19925;-69
2023/06/08 08:11:13;;;;;;;;;;;;;;;24.82;82.51;97758.09;5046905;28;19925;-69
2023/06/08 08:13:40;;;;;;;;;;;;;;;24.62;84.49;97758.03;5044058;28;19932;-69
2023/06/08 08:16:07;;;;;;;;;;;;;;;24.65;85.04;97749.13;5042805;28;19929;-69
2023/06/08 08:18:34;;;;;;;;;;;;;;;24.97;84.43;97751.75;5047268;28;20299;-69
2023/06/08 08:21:00;;;;;;;;;;;;;;;24.83;81.94;97749.50;5051989;28;19925;-69
2023/06/08 08:23:27;;;;;;;;;;;;;;;24.78;82.51;97740.78;5043595;28;19925;-69
2023/06/08 08:25:53;;;;;;;;;;;;;;;25.58;81.78;97749.78;5043748;28;19925;-69
2023/06/08 08:28:19;;;;;;;;;;;;;;;25.00;83.72;97745.56;5045103;28;19936;-69
2023/06/08 08:30:46;;;;;;;;;;;;;;;24.93;86.05;97740.75;5047197;28;19929;-69
2023/06/08 08:33:14;;;;;;;;;;;;;;;25.16;83.83;97749.00;5046950;28;19979;-69
2023/06/08 08:35:40;;;;;;;;;;;;;;;25.18;82.30;97742.03;5043651;28;19925;-69
2023/06/08 08:38:06;;;;;;;;;;;;;;;25.72;81.57;97730.88;5043992;28;20440;-69
2023/06/08 08:40:33;;;;;;;;;;;;;;;25.87;78.44;97740.13;5046751;28;19926;-69
2023/06/08 08:43:02;;;;;;;;;;;;;;;25.89;76.13;97729.59;5046494;28;19936;-69
2023/06/08 08:45:31;;;;;;;;;;;;;;;25.20;77.61;97739.72;5044099;28;19932;-69
2023/06/08 08:47:57;;;;;;;;;;;;;;;25.40;81.11;97743.19;5043419;28;20056;-70
2023/06/08 08:50:26;;;;;;;;;;;;;;;25.88;78.17;97735.41;5049652;28;19921;-69
2023/06/08 08:52:56;;;;;;;;;;;;;;;26.34;77.84;97741.63;5046933;28;19925;-69
2023/06/08 08:55:27;;;;;;;;;;;;;;;26.40;75.62;97740.91;5045127;28;19921;-69
2023/06/08 08:57:54;;;;;;;;;;;;;;;26.26;72.66;97732.50;5042532;28;20203;-70
2023/06/08 09:00:21;;;;;;;;;;;;;;;26.34;74.30;97730.69;5045213;28;19948;-70
2023/06/08 09:02:49;;;;;;;;;;;;;;;26.08;73.21;97734.19;5047235;28;19932;-70
2023/06/08 09:05:16;;;;;;;;;;;;;;;26.69;73.55;97726.44;5046274;28;19925;-70
2023/06/08 09:07:43;;;;;;;;;;;;;;;26.73;72.32;97724.56;5043588;28;19925;-70
2023/06/08 09:10:14;;;;;;;;;;;;;;;26.15;74.29;97728.81;5042410;28;20496;-70
2023/06/08 09:12:41;;;;;;;;;;;;;;;25.80;76.72;97723.59;5062420;28;20029;-69
2023/06/08 09:15:09;;;;;;;;;;;;;;;25.94;75.72;97732.00;5046860;28;19924;-69
2023/06/08 09:17:38;;;;;;;;;;;;;;;25.86;77.86;97719.38;5035314;28;19949;-70
2023/06/08 09:20:08;;;;;;;;;;;;;;;25.83;78.49;97722.06;5038729;28;19925;-69
2023/06/08 09:22:34;;;;;;;;;;;;;;;25.40;80.38;97721.31;5046424;28;19925;-69
2023/06/08 09:25:03;;;;;;;;;;;;;;;25.24;81.00;97721.44;5046719;28;19925;-69
2023/06/08 09:27:30;;;;;;;;;;;;;;;25.70;80.54;97713.25;5044042;28;19925;-70
2023/06/08 09:29:57;;;;;;;;;;;;;;;25.98;75.26;97702.75;5043092;28;19929;-69
2023/06/08 09:32:31;;;;;;;;;;;;;;;26.22;75.30;97705.09;5044877;28;19933;-69
2023/06/08 09:35:01;;;;;;;;;;;;;;;26.09;75.93;97708.41;5046557;28;19932;-69
2023/06/08 09:37:29;;;;;;;;;;;;;;;26.25;75.57;97701.59;5043971;28;19952;-69
2023/06/08 09:39:56;;;;;;;;;;;;;;;26.06;76.11;97704.44;5042974;28;20079;-70
2023/06/08 09:42:24;;;;;;;;;;;;;;;26.36;75.50;97692.75;5044327;28;19921;-70
2023/06/08 09:45:06;;;;;;;;;;;;;;;26.22;72.92;97696.09;5046125;28;19925;-69
2023/06/08 09:47:33;;;;;;;;;;;;;;;25.71;73.49;97693.75;5043078;28;19928;-69
2023/06/08 09:49:59;;;;;;;;;;;;;;;25.89;75.55;97695.97;5045677;28;19933;-69
2023/06/08 09:52:25;;;;;;;;;;;;;;;26.59;73.15;97688.75;5046036;28;19932;-69
2023/06/08 09:54:52;;;;;;;;;;;;;;;26.75;71.94;97683.84;5047130;28;20020;-69
2023/06/08 09:57:20;;;;;;;;;;;;;;;26.95;71.05;97676.28;5045995;28;19952;-69
2023/06/08 09:59:51;;;;;;;;;;;;;;;27.07;70.74;97669.75;5044125;28;19930;-69
2023/06/08 10:02:19;;;;;;;;;;;;;;;27.27;69.64;97677.38;5045051;28;19922;-69
2023/06/08 10:04:48;;;;;;;;;;;;;;;26.96;66.73;97671.56;5046577;28;19933;-69
2023/06/08 10:07:17;;;;;;;;;;;;;;;26.80;68.45;97674.56;5045566;28;19947;-69
2023/06/08 10:09:46;;;;;;;;;;;;;;;26.21;71.41;97667.91;5045053;28;19925;-69
2023/06/08 10:12:13;;;;;;;;;;;;;;;26.39;72.92;97662.69;5046042;28;19936;-69
2023/06/08 10:14:42;;;;;;;;;;;;;;;26.83;70.34;97662.84;5050325;28;19925;-69
2023/06/08 10:17:11;;;;;;;;;;;;;;;26.52;68.39;97672.22;5050110;28;19948;-69
2023/06/08 10:19:38;;;;;;;;;;;;;;;26.90;69.85;97660.16;5045393;28;19938;-69
2023/06/08 10:22:05;;;;;;;;;;;;;;;26.63;68.59;97666.88;5050727;28;19979;-69
2023/06/08 10:24:32;;;;;;;;;;;;;;;26.47;68.48;97669.81;5049435;28;19932;-69
2023/06/08 10:27:08;;;;;;;;;;;;;;;26.22;70.06;97663.22;5050363;28;19921;-69
2023/06/08 10:29:35;;;;;;;;;;;;;;;26.48;70.59;97662.41;5046074;28;19933;-69
2023/06/08 10:32:05;;;;;;;;;;;;;;;26.29;71.33;97657.84;5046882;28;19925;-69
2023/06/08 10:34:39;;;;;;;;;;;;;;;26.24;70.70;97653.47;5048772;28;19925;-69
2023/06/08 10:37:06;;;;;;;;;;;;;;;26.55;70.45;97648.78;5066049;28;19925;-69
2023/06/08 10:39:46;;;;;;;;;;;;;;;27.17;69.33;97645.16;5046165;28;19934;-69
2023/06/08 10:42:17;;;;;;;;;;;;;;;27.65;67.50;97637.75;5046180;28;19933;-70
2023/06/08 10:44:43;;;;;;;;;;;;;;;27.92;66.53;97632.03;5049426;28;19925;-70
2023/06/08 10:47:13;;;;;;;;;;;;;;;28.00;65.96;97633.66;5049167;28;19925;-70
2023/06/08 10:49:45;;;;;;;;;;;;;;;27.97;62.84;97629.75;5046179;28;19925;-70
2023/06/08 10:52:17;;;;;;;;;;;;;;;27.77;64.16;97620.19;5049099;28;19979;-70
2023/06/08 10:54:49;;;;;;;;;;;;;;;27.40;64.74;97623.03;5049078;28;19925;-70
2023/06/08 10:57:34;;;;;;;;;;;;;;;27.74;64.82;97624.50;5048494;28;19925;-70
2023/06/08 11:00:01;;;;;;;;;;;;;;;28.00;62.60;97615.25;5046040;28;19925;-70
2023/06/08 11:02:29;;;;;;;;;;;;;;;27.57;62.57;97605.19;5048325;28;19930;-70
2023/06/08 11:04:58;;;;;;;;;;;;;;;27.12;63.35;97612.63;5049259;28;20279;-70
2023/06/08 11:07:25;;;;;;;;;;;;;;;27.20;64.35;97610.75;5047572;28;19925;-70
2023/06/08 11:09:52;;;;;;;;;;;;;;;27.25;64.85;97604.91;5044576;28;19933;-70
2023/06/08 11:12:20;;;;;;;;;;;;;;;27.62;63.58;97602.84;5046388;28;19921;-70
2023/06/08 11:14:47;;;;;;;;;;;;;;;27.70;61.56;97606.41;5048892;28;19924;-70
2023/06/08 11:17:13;;;;;;;;;;;;;;;27.68;62.69;97612.31;5048486;28;19925;-70
2023/06/08 11:19:40;;;;;;;;;;;;;;;27.47;62.43;97620.38;5045631;28;19926;-70
2023/06/08 11:22:07;;;;;;;;;;;;;;;27.51;61.35;97606.69;5047021;28;19930;-70
2023/06/08 11:24:38;;;;;;;;;;;;;;;27.39;60.05;97612.47;5049309;28;19972;-70
2023/06/08 11:27:05;;;;;;;;;;;;;;;27.18;61.69;97605.63;5048149;28;19932;-70
2023/06/08 11:29:31;;;;;;;;;;;;;;;27.11;62.54;97615.75;5044301;28;19940;-69
2023/06/08 11:32:09;;;;;;;;;;;;;;;27.05;63.34;97611.78;5045189;28;19933;-69
2023/06/08 11:34:37;;;;;;;;;;;;;;;27.11;62.38;97624.75;5044852;28;19968;-69
2023/06/08 11:37:03;;;;;;;;;;;;;;;26.75;62.77;97620.84;5044895;28;19925;-69
2023/06/08 11:39:33;;;;;;;;;;;;;;;26.36;66.20;97627.03;5047579;28;19926;-70
2023/06/08 11:41:59;;;;;;;;;;;;;;;26.07;70.08;97645.00;5048472;28;20306;-69
2023/06/08 11:44:26;;;;;;;;;;;;;;;25.48;77.89;97646.47;5046295;28;19925;-69
2023/06/08 11:46:53;;;;;;;;;;;;;;;26.06;81.46;97638.75;5044971;28;19921;-69
2023/06/08 11:49:20;;;;;;;;;;;;;;;25.22;83.83;97633.53;5045086;28;19925;-69
2023/06/08 11:51:47;;;;;;;;;;;;;;;25.90;80.02;97612.75;5050605;28;19925;-69
2023/06/08 11:54:14;;;;;;;;;;;;;;;25.86;76.80;97618.16;5045900;28;19925;-69
2023/06/08 11:56:45;;;;;;;;;;;;;;;25.29;77.82;97626.59;5047177;28;19936;-69
2023/06/08 11:59:12;;;;;;;;;;;;;;;25.10;77.80;97638.38;5048207;28;20262;-69
2023/06/08 12:01:53;;;;;;;;;;;;;;;24.70;81.42;97644.28;5044485;28;20025;-69
2023/06/08 12:04:20;;;;;;;;;;;;;;;24.67;85.90;97651.25;5045817;28;19964;-69
2023/06/08 12:06:46;;;;;;;;;;;;;;;24.53;89.48;97658.38;5048149;28;19988;-70
2023/06/08 12:09:13;;;;;;;;;;;;;;;24.47;90.11;97660.63;5047456;28;19925;-69
2023/06/08 12:11:39;;;;;;;;;;;;;;;24.62;88.03;97648.81;5044740;28;19922;-69
2023/06/08 12:14:07;;;;;;;;;;;;;;;25.51;81.56;97637.56;5044008;28;19925;-69
2023/06/08 12:16:42;;;;;;;;;;;;;;;25.80;75.99;97647.00;5045907;28;19925;-69
2023/06/08 12:19:09;;;;;;;;;;;;;;;25.96;70.29;97639.41;5047394;28;19936;-69
2023/06/08 12:21:39;;;;;;;;;;;;;;;26.03;63.90;97635.97;5047620;28;19925;-69
2023/06/08 12:24:06;;;;;;;;;;;;;;;25.81;62.05;97645.81;5043909;28;19925;-69
2023/06/08 12:26:32;;;;;;;;;;;;;;;25.65;63.16;97646.00;5045754;28;19921;-69
2023/06/08 12:29:04;;;;;;;;;;;;;;;25.40;65.18;97633.06;5047216;28;19948;-69
2023/06/08 12:31:32;;;;;;;;;;;;;;;25.39;65.79;97634.19;5044059;28;19929;-69
2023/06/08 12:33:58;;;;;;;;;;;;;;;25.52;67.66;97635.63;5042788;28;19929;-69
2023/06/08 12:36:25;;;;;;;;;;;;;;;25.34;68.86;97639.97;5045605;28;19932;-70
2023/06/08 12:38:51;;;;;;;;;;;;;;;25.34;66.15;97618.13;5046082;28;19932;-69
2023/06/08 12:41:18;;;;;;;;;;;;;;;25.50;66.36;97627.00;5046151;28;19921;-70
2023/06/08 12:43:46;;;;;;;;;;;;;;;25.55;66.62;97622.00;5042185;28;19926;-69
2023/06/08 12:46:18;;;;;;;;;;;;;;;25.57;67.11;97627.09;5042947;28;19921;-69